createdAt,value
2018-08-03T00:00:43.808Z,8.73
2018-08-03T00:03:13.280Z,8.13
2018-08-03T00:05:42.853Z,10.63
2018-08-03T00:08:12.304Z,8.30
2018-08-03T00:10:41.904Z,9.50
2018-08-03T00:13:11.363Z,8.17
2018-08-03T00:15:40.800Z,9.27
2018-08-03T00:18:11.054Z,7.10
2018-08-03T00:20:40.590Z,6.47
2018-08-03T00:23:10.193Z,7.07
2018-08-03T00:25:39.704Z,8.77
2018-08-03T00:28:09.144Z,7.70
2018-08-03T00:30:38.726Z,6.50
2018-08-03T00:33:08.265Z,7.50
2018-08-03T00:35:37.664Z,8.27
2018-08-03T00:38:07.277Z,11.17
2018-08-03T00:40:36.497Z,9.23
2018-08-03T00:43:05.904Z,6.63
2018-08-03T00:45:35.304Z,6.13
2018-08-03T00:48:04.872Z,7.03
2018-08-03T00:50:34.395Z,8.27
2018-08-03T00:53:03.974Z,7.70
2018-08-03T00:55:33.803Z,10.90
2018-08-03T00:58:03.253Z,8.03
2018-08-03T01:00:32.581Z,10.30
2018-08-03T01:03:01.777Z,12.80
2018-08-03T01:05:31.101Z,16.03
2018-08-03T01:08:00.177Z,8.40
2018-08-03T01:10:29.498Z,9.57
2018-08-03T01:12:58.800Z,12.27
2018-08-03T01:15:28.107Z,7.53
2018-08-03T01:17:57.387Z,6.87
2018-08-03T01:20:26.700Z,6.90
2018-08-03T01:22:55.784Z,7.37
2018-08-03T01:25:25.084Z,9.57
2018-08-03T01:27:54.084Z,11.23
2018-08-03T01:30:23.281Z,10.93
2018-08-03T01:32:53.273Z,10.73
2018-08-03T01:35:21.985Z,7.73
2018-08-03T01:37:51.175Z,11.57
2018-08-03T01:40:20.483Z,9.87
2018-08-03T01:42:49.761Z,8.40
2018-08-03T01:45:19.136Z,7.80
2018-08-03T01:47:48.332Z,8.07
2018-08-03T01:50:17.424Z,11.43
2018-08-03T01:52:46.503Z,10.83
2018-08-03T01:55:15.660Z,6.97
2018-08-03T01:57:44.963Z,9.73
2018-08-03T02:00:14.100Z,12.97
2018-08-03T02:02:43.195Z,10.53
2018-08-03T02:05:12.425Z,8.43
2018-08-03T02:07:41.499Z,14.40
2018-08-03T02:10:10.998Z,11.50
2018-08-03T02:12:40.085Z,8.53
2018-08-03T02:15:09.225Z,9.17
2018-08-03T02:17:38.520Z,8.77
2018-08-03T02:20:08.387Z,8.03
2018-08-03T02:22:37.553Z,10.67
2018-08-03T02:25:07.038Z,9.93
2018-08-03T02:27:36.345Z,9.57
2018-08-03T02:30:06.105Z,10.27
2018-08-03T02:32:35.286Z,7.57
2018-08-03T02:35:04.501Z,11.17
2018-08-03T02:37:34.516Z,8.93
2018-08-03T02:40:04.401Z,10.67
2018-08-03T02:42:33.541Z,9.07
2018-08-03T02:45:02.629Z,8.83
2018-08-03T02:47:31.750Z,9.53
2018-08-03T02:50:01.045Z,8.87
2018-08-03T02:52:30.191Z,10.97
2018-08-03T02:54:59.442Z,12.17
2018-08-03T02:57:28.557Z,8.27
2018-08-03T02:59:57.929Z,8.53
2018-08-03T03:02:27.066Z,8.03
2018-08-03T03:04:57.120Z,8.40
2018-08-03T03:07:28.825Z,9.50
2018-08-03T03:09:58.995Z,12.00
2018-08-03T03:12:28.328Z,8.27
2018-08-03T03:14:57.526Z,10.47
2018-08-03T03:17:27.240Z,9.07
2018-08-03T03:19:56.306Z,6.80
2018-08-03T03:22:25.469Z,9.17
2018-08-03T03:24:54.746Z,7.50
2018-08-03T03:27:24.121Z,7.53
2018-08-03T03:29:53.381Z,10.53
2018-08-03T03:32:22.665Z,10.73
2018-08-03T03:34:51.790Z,8.73
2018-08-03T03:37:21.023Z,9.17
2018-08-03T03:39:50.359Z,10.10
2018-08-03T03:42:19.511Z,12.50
2018-08-03T03:44:48.720Z,8.97
2018-08-03T03:47:18.039Z,10.70
2018-08-03T03:49:47.995Z,10.70
2018-08-03T03:52:17.166Z,10.63
2018-08-03T03:54:46.341Z,11.73
2018-08-03T03:57:15.461Z,7.70
2018-08-03T03:59:44.773Z,10.23
2018-08-03T04:02:13.932Z,11.00
2018-08-03T04:04:43.165Z,8.13
2018-08-03T04:07:12.463Z,9.43
2018-08-03T04:09:41.532Z,10.40
2018-08-03T04:12:10.879Z,10.80
2018-08-03T04:14:40.045Z,7.93
2018-08-03T04:17:09.185Z,11.30
2018-08-03T04:19:38.286Z,9.37
2018-08-03T04:22:07.645Z,13.57
2018-08-03T04:24:36.292Z,7.73
2018-08-03T04:27:05.635Z,7.87
2018-08-03T04:29:34.730Z,8.00
2018-08-03T04:32:04.494Z,13.57
2018-08-03T04:34:33.701Z,10.47
2018-08-03T04:37:02.789Z,13.77
2018-08-03T04:39:32.578Z,11.00
2018-08-03T04:42:01.898Z,7.87
2018-08-03T04:44:32.327Z,8.37
2018-08-03T04:47:01.657Z,12.00
2018-08-03T04:49:31.460Z,11.57
2018-08-03T04:52:00.605Z,10.67
2018-08-03T04:54:33.012Z,10.13
2018-08-03T04:57:02.322Z,9.07
2018-08-03T04:59:31.500Z,12.13
2018-08-03T05:02:00.763Z,12.03
2018-08-03T05:04:30.057Z,13.67
2018-08-03T05:06:59.300Z,8.90
2018-08-03T05:09:28.644Z,9.73
2018-08-03T05:11:57.759Z,9.07
2018-08-03T05:14:28.652Z,9.60
2018-08-03T05:16:57.926Z,10.03
2018-08-03T05:19:27.272Z,10.77
2018-08-03T05:21:56.390Z,16.20
2018-08-03T05:24:25.583Z,9.97
2018-08-03T05:26:54.712Z,12.10
2018-08-03T05:29:24.924Z,13.23
2018-08-03T05:31:54.355Z,12.47
2018-08-03T05:34:24.677Z,9.70
2018-08-03T05:36:54.154Z,9.40
2018-08-03T05:39:23.398Z,12.83
2018-08-03T05:41:52.883Z,14.47
2018-08-03T05:44:22.196Z,12.37
2018-08-03T05:46:51.620Z,12.07
2018-08-03T05:49:21.105Z,14.87
2018-08-03T05:51:50.481Z,18.53
2018-08-03T05:54:20.124Z,15.57
2018-08-03T05:56:50.406Z,12.00
2018-08-03T05:59:20.107Z,11.47
2018-08-03T06:01:49.400Z,10.63
2018-08-03T06:04:18.654Z,14.83
2018-08-03T06:06:47.930Z,11.10
2018-08-03T06:09:17.133Z,12.13
2018-08-03T06:11:46.400Z,13.77
2018-08-03T06:14:15.796Z,12.27
2018-08-03T06:16:52.602Z,15.13
2018-08-03T06:19:28.355Z,12.73
2018-08-03T06:24:39.988Z,16.77
2018-08-03T06:27:09.182Z,12.50
2018-08-03T06:29:38.450Z,14.73
2018-08-03T06:32:09.054Z,15.93
2018-08-03T06:34:38.791Z,12.70
2018-08-03T06:37:08.544Z,14.07
2018-08-03T06:39:38.293Z,12.97
2018-08-03T06:42:08.146Z,15.77
2018-08-03T06:44:39.245Z,17.77
2018-08-03T06:47:08.540Z,16.17
2018-08-03T06:49:37.744Z,14.40
2018-08-03T06:52:07.115Z,15.17
2018-08-03T06:54:36.555Z,14.40
2018-08-03T06:57:06.011Z,15.13
2018-08-03T06:59:35.531Z,12.53
2018-08-03T07:02:05.087Z,12.77
2018-08-03T07:04:34.809Z,12.97
2018-08-03T07:07:04.195Z,13.20
2018-08-03T07:09:33.617Z,12.20
2018-08-03T07:12:05.203Z,12.23
2018-08-03T07:14:34.661Z,14.03
2018-08-03T07:17:04.149Z,15.67
2018-08-03T07:19:33.394Z,12.50
2018-08-03T07:22:02.642Z,14.20
2018-08-03T07:24:32.081Z,14.40
2018-08-03T07:27:02.086Z,12.97
2018-08-03T07:29:31.218Z,13.17
2018-08-03T07:32:00.917Z,13.50
2018-08-03T07:34:30.436Z,12.30
2018-08-03T07:37:00.172Z,14.13
2018-08-03T07:39:29.800Z,13.97
2018-08-03T07:41:59.653Z,13.87
2018-08-03T07:44:28.899Z,12.50
2018-08-03T07:46:58.163Z,12.80
2018-08-03T07:49:27.453Z,15.03
2018-08-03T07:51:57.004Z,14.50
2018-08-03T07:54:26.359Z,11.90
2018-08-03T07:56:56.009Z,15.33
2018-08-03T07:59:25.403Z,15.37
2018-08-03T08:01:55.011Z,12.67
2018-08-03T08:04:23.954Z,12.87
2018-08-03T08:06:53.299Z,14.07
2018-08-03T08:09:27.061Z,16.40
2018-08-03T08:11:57.774Z,11.67
2018-08-03T08:14:27.278Z,13.17
2018-08-03T08:16:57.693Z,17.53
2018-08-03T08:19:27.802Z,17.20
2018-08-03T08:21:58.354Z,14.63
2018-08-03T08:24:27.361Z,18.07
2018-08-03T08:26:56.694Z,13.47
2018-08-03T08:29:26.924Z,13.90
2018-08-03T08:31:56.676Z,15.73
2018-08-03T08:34:26.303Z,14.68
2018-08-03T08:36:56.505Z,13.28
2018-08-03T08:39:25.891Z,14.17
2018-08-03T08:41:55.477Z,13.30
2018-08-03T08:44:25.011Z,11.28
2018-08-03T08:46:54.486Z,13.75
2018-08-03T08:49:24.093Z,15.95
2018-08-03T08:51:53.933Z,13.88
2018-08-03T08:54:23.699Z,12.50
2018-08-03T08:56:53.283Z,12.75
2018-08-03T08:59:22.919Z,11.30
2018-08-03T09:01:52.680Z,13.40
2018-08-03T09:04:22.493Z,12.47
2018-08-03T09:06:53.058Z,13.20
2018-08-03T09:09:22.675Z,10.13
2018-08-03T09:11:52.245Z,11.73
2018-08-03T09:14:21.907Z,12.95
2018-08-03T09:16:51.438Z,11.93
2018-08-03T09:19:28.679Z,16.65
2018-08-03T09:21:59.483Z,15.32
2018-08-03T09:24:29.287Z,10.40
2018-08-03T09:27:06.223Z,11.18
2018-08-03T09:29:35.944Z,14.40
2018-08-03T09:32:07.535Z,12.80
2018-08-03T09:34:36.924Z,13.03
2018-08-03T09:37:06.324Z,12.82
2018-08-03T09:39:35.879Z,11.22
2018-08-03T09:42:05.418Z,11.12
2018-08-03T09:44:35.431Z,9.55
2018-08-03T09:47:04.912Z,10.00
2018-08-03T09:49:34.726Z,11.10
2018-08-03T09:52:05.315Z,11.68
2018-08-03T09:54:38.533Z,13.83
2018-08-03T09:57:09.885Z,11.83
2018-08-03T09:59:40.606Z,13.00
2018-08-03T10:02:15.629Z,9.70
2018-08-03T10:04:45.069Z,8.73
2018-08-03T10:07:15.016Z,10.43
2018-08-03T10:09:44.730Z,11.03
2018-08-03T10:12:13.730Z,9.75
2018-08-03T10:14:48.145Z,9.38
2018-08-03T10:17:17.854Z,8.88
2018-08-03T10:19:47.134Z,10.00
2018-08-03T10:22:16.360Z,9.93
2018-08-03T10:24:45.971Z,8.30
2018-08-03T10:27:15.156Z,9.33
2018-08-03T10:29:44.540Z,8.65
2018-08-03T10:32:13.819Z,9.63
2018-08-03T10:34:43.066Z,8.18
2018-08-03T10:37:12.236Z,9.15
2018-08-03T10:39:41.698Z,10.38
2018-08-03T10:42:10.915Z,8.88
2018-08-03T10:44:40.356Z,9.18
2018-08-03T10:47:09.739Z,9.88
2018-08-03T10:49:39.291Z,8.35
2018-08-03T10:52:08.606Z,10.08
2018-08-03T10:54:38.070Z,7.92
2018-08-03T10:57:07.671Z,7.55
2018-08-03T10:59:36.948Z,9.03
2018-08-03T11:02:06.382Z,8.58
2018-08-03T11:04:35.659Z,7.95
2018-08-03T11:07:05.149Z,9.00
2018-08-03T11:09:34.472Z,8.35
2018-08-03T11:12:04.287Z,8.38
2018-08-03T11:14:33.618Z,7.80
2018-08-03T11:17:04.101Z,6.83
2018-08-03T11:19:33.462Z,7.90
2018-08-03T11:22:07.529Z,7.50
2018-08-03T11:27:40.755Z,7.42
2018-08-03T11:30:17.318Z,7.95
2018-08-03T11:32:51.179Z,7.35
2018-08-03T11:35:27.539Z,8.70
2018-08-03T11:37:59.789Z,8.40
2018-08-03T11:40:35.679Z,7.15
2018-08-03T11:43:05.119Z,7.75
2018-08-03T11:48:16.794Z,8.00
2018-08-03T11:50:49.998Z,7.65
2018-08-03T11:53:28.403Z,7.92
2018-08-03T11:56:02.149Z,7.60
2018-08-03T11:58:36.275Z,8.50
2018-08-03T12:01:05.912Z,7.62
2018-08-03T12:03:37.366Z,7.83
2018-08-03T12:06:06.846Z,7.50
2018-08-03T12:08:36.654Z,7.87
2018-08-03T12:11:13.656Z,7.55
2018-08-03T12:16:28.132Z,7.03
2018-08-03T12:18:58.542Z,7.37
2018-08-03T12:21:27.477Z,8.05
2018-08-03T12:24:01.793Z,7.17
2018-08-03T12:26:33.782Z,7.85
2018-08-03T12:29:04.706Z,7.08
2018-08-03T12:31:36.431Z,7.08
2018-08-03T12:34:06.799Z,7.80
2018-08-03T12:36:36.147Z,7.92
2018-08-03T12:39:08.215Z,7.25
2018-08-03T12:41:43.404Z,7.58
2018-08-03T12:44:12.683Z,8.28
2018-08-03T12:46:42.173Z,8.30
2018-08-03T12:52:08.480Z,7.95
2018-08-03T12:54:43.980Z,7.78
2018-08-03T12:57:18.063Z,8.15
2018-08-03T12:59:47.417Z,7.87
2018-08-03T13:04:58.286Z,7.40
2018-08-03T13:07:28.019Z,7.90
2018-08-03T13:09:57.455Z,7.30
2018-08-03T13:12:35.335Z,7.30
2018-08-03T13:15:10.061Z,7.05
2018-08-03T13:17:50.879Z,8.03
2018-08-03T13:20:21.497Z,8.10
2018-08-03T13:22:59.385Z,7.33
2018-08-03T13:25:31.427Z,9.03
2018-08-03T13:30:37.465Z,7.83
2018-08-03T13:33:07.785Z,7.50
2018-08-03T13:35:39.296Z,6.92
2018-08-03T13:38:09.533Z,7.47
2018-08-03T13:40:38.802Z,7.62
2018-08-03T13:43:08.248Z,7.42
2018-08-03T13:45:37.725Z,7.58
2018-08-03T13:48:07.163Z,8.23
2018-08-03T13:50:36.841Z,8.05
2018-08-03T13:53:06.723Z,8.60
2018-08-03T13:55:36.191Z,8.10
2018-08-03T13:58:09.635Z,8.20
2018-08-03T14:00:42.915Z,8.55
2018-08-03T14:03:12.308Z,8.28
2018-08-03T14:05:41.672Z,8.70
2018-08-03T14:08:13.660Z,8.13
2018-08-03T14:10:47.596Z,7.97
2018-08-03T14:13:17.564Z,8.50
2018-08-03T14:15:46.869Z,8.33
2018-08-03T14:18:24.122Z,8.63
2018-08-03T14:20:57.972Z,8.55
2018-08-03T14:23:27.325Z,8.98
2018-08-03T14:25:56.614Z,8.13
2018-08-03T14:28:26.145Z,8.45
2018-08-03T14:31:07.046Z,8.30
2018-08-03T14:33:38.565Z,7.97
2018-08-03T14:36:08.462Z,8.38
2018-08-03T14:38:39.018Z,8.80
2018-08-03T14:41:08.481Z,8.38
2018-08-03T14:43:37.788Z,8.60
2018-08-03T14:46:07.175Z,7.92
2018-08-03T14:48:36.386Z,9.03
2018-08-03T14:51:05.667Z,8.53
2018-08-03T14:53:35.002Z,8.18
2018-08-03T14:56:05.063Z,8.40
2018-08-03T14:58:34.865Z,8.55
2018-08-03T15:01:04.830Z,8.10
2018-08-03T15:03:34.027Z,7.87
2018-08-03T15:06:03.327Z,8.75
2018-08-03T15:08:32.568Z,8.48
2018-08-03T15:11:01.738Z,7.87
2018-08-03T15:13:30.983Z,8.05
2018-08-03T15:16:00.151Z,9.93
2018-08-03T15:18:29.384Z,7.55
2018-08-03T15:20:58.584Z,7.75
2018-08-03T15:23:27.755Z,7.03
2018-08-03T15:25:56.945Z,8.30
2018-08-03T15:28:26.182Z,8.15
2018-08-03T15:30:55.429Z,7.65
2018-08-03T15:33:24.918Z,7.42
2018-08-03T15:35:54.472Z,8.03
2018-08-03T15:38:23.687Z,8.15
2018-08-03T15:40:52.920Z,8.13
2018-08-03T15:43:22.021Z,8.68
2018-08-03T15:45:51.221Z,7.62
2018-08-03T15:48:20.509Z,7.70
2018-08-03T15:50:49.773Z,7.75
2018-08-03T15:53:18.988Z,8.58
2018-08-03T15:55:48.261Z,8.03
2018-08-03T15:58:17.700Z,7.83
2018-08-03T16:00:47.766Z,8.03
2018-08-03T16:03:16.893Z,7.65
2018-08-03T16:05:46.373Z,7.47
2018-08-03T16:08:15.772Z,7.72
2018-08-03T16:10:45.191Z,8.23
2018-08-03T16:13:14.561Z,8.03
2018-08-03T16:15:43.932Z,8.70
2018-08-03T16:18:13.103Z,7.97
2018-08-03T16:20:42.298Z,8.23
2018-08-03T16:23:11.414Z,7.92
2018-08-03T16:25:40.676Z,7.83
2018-08-03T16:28:09.881Z,7.20
2018-08-03T16:30:39.156Z,7.28
2018-08-03T16:33:08.408Z,7.85
2018-08-03T16:35:37.540Z,7.40
2018-08-03T16:38:06.251Z,6.62
2018-08-03T16:40:35.519Z,7.10
2018-08-03T16:43:04.686Z,7.70
2018-08-03T16:45:34.310Z,7.53
2018-08-03T16:48:03.535Z,6.80
2018-08-03T16:50:32.798Z,7.20
2018-08-03T16:53:02.049Z,6.85
2018-08-03T16:55:32.287Z,6.67
2018-08-03T16:58:01.748Z,7.20
2018-08-03T17:00:31.010Z,7.87
2018-08-03T17:03:00.208Z,7.15
2018-08-03T17:05:29.456Z,6.45
2018-08-03T17:07:58.675Z,7.10
2018-08-03T17:10:27.952Z,6.45
2018-08-03T17:12:57.162Z,6.80
2018-08-03T17:15:26.327Z,6.50
2018-08-03T17:17:55.454Z,6.58
2018-08-03T17:20:24.687Z,6.35
2018-08-03T17:22:53.826Z,5.97
2018-08-03T17:25:22.941Z,6.53
2018-08-03T17:27:52.044Z,7.28
2018-08-03T17:30:21.229Z,7.75
2018-08-03T17:32:50.394Z,7.45
2018-08-03T17:35:19.585Z,6.37
2018-08-03T17:37:48.688Z,7.33
2018-08-03T17:40:17.859Z,8.30
2018-08-03T17:42:47.050Z,7.25
2018-08-03T17:45:16.157Z,7.60
2018-08-03T17:47:45.278Z,7.75
2018-08-03T17:50:14.479Z,7.58
2018-08-03T17:52:43.658Z,7.95
2018-08-03T17:55:12.851Z,8.03
2018-08-03T17:57:41.989Z,7.35
2018-08-03T18:00:11.387Z,8.03
2018-08-03T18:02:40.494Z,8.23
2018-08-03T18:05:09.657Z,7.95
2018-08-03T18:07:38.807Z,8.43
2018-08-03T18:10:08.561Z,7.72
2018-08-03T18:12:37.701Z,8.10
2018-08-03T18:15:08.118Z,7.50
2018-08-03T18:17:37.338Z,7.83
2018-08-03T18:20:06.844Z,9.88
2018-08-03T18:22:36.361Z,9.23
2018-08-03T18:25:05.890Z,7.95
2018-08-03T18:27:35.077Z,7.90
2018-08-03T18:30:04.367Z,7.72
2018-08-03T18:32:33.489Z,7.85
2018-08-03T18:35:02.582Z,6.72
2018-08-03T18:37:31.820Z,7.28
2018-08-03T18:40:00.954Z,7.70
2018-08-03T18:42:30.106Z,8.68
2018-08-03T18:44:59.255Z,7.47
2018-08-03T18:47:28.638Z,8.60
2018-08-03T18:49:57.769Z,8.50
2018-08-03T18:52:26.975Z,7.00
2018-08-03T18:54:56.431Z,7.40
2018-08-03T18:57:25.559Z,7.85
2018-08-03T18:59:54.858Z,8.43
2018-08-03T19:02:24.182Z,7.90
2018-08-03T19:04:53.436Z,8.53
2018-08-03T19:07:22.584Z,7.53
2018-08-03T19:09:51.666Z,8.10
2018-08-03T19:12:20.838Z,7.78
2018-08-03T19:14:50.055Z,7.80
2018-08-03T19:17:18.704Z,10.90
2018-08-03T19:19:47.752Z,9.05
2018-08-03T19:22:16.866Z,9.05
2018-08-03T19:24:45.994Z,12.35
2018-08-03T19:27:15.128Z,8.10
2018-08-03T19:29:44.187Z,7.80
2018-08-03T19:32:13.367Z,7.75
2018-08-03T19:34:42.556Z,9.00
2018-08-03T19:37:11.708Z,8.08
2018-08-03T19:39:40.791Z,10.72
2018-08-03T19:42:09.921Z,8.85
2018-08-03T19:44:39.159Z,9.38
2018-08-03T19:47:08.592Z,8.85
2018-08-03T19:49:37.719Z,8.95
2018-08-03T19:52:06.936Z,8.48
2018-08-03T19:54:36.028Z,12.98
2018-08-03T19:57:05.757Z,11.97
2018-08-03T19:59:34.491Z,9.33
2018-08-03T20:02:03.640Z,8.60
2018-08-03T20:04:32.645Z,8.05
2018-08-03T20:07:01.789Z,8.30
2018-08-03T20:09:30.946Z,9.33
2018-08-03T20:12:00.306Z,11.43
2018-08-03T20:14:29.402Z,8.28
2018-08-03T20:16:58.817Z,9.40
2018-08-03T20:19:28.036Z,8.23
2018-08-03T20:21:57.153Z,8.03
2018-08-03T20:24:26.444Z,8.95
2018-08-03T20:26:55.762Z,10.98
2018-08-03T20:29:24.857Z,9.15
2018-08-03T20:31:54.341Z,8.68
2018-08-03T20:34:23.625Z,13.18
2018-08-03T20:36:52.952Z,8.80
2018-08-03T20:39:22.229Z,9.18
2018-08-03T20:41:51.391Z,9.05
2018-08-03T20:44:20.710Z,13.15
2018-08-03T20:46:49.824Z,9.68
2018-08-03T20:49:19.281Z,7.90
2018-08-03T20:51:48.633Z,8.80
2018-08-03T20:54:17.942Z,8.68
2018-08-03T20:56:46.972Z,8.68
2018-08-03T20:59:16.206Z,8.00
2018-08-03T21:01:45.297Z,9.20
2018-08-03T21:04:14.442Z,10.72
2018-08-03T21:06:43.519Z,7.97
2018-08-03T21:09:13.306Z,8.43
2018-08-03T21:11:42.651Z,9.08
2018-08-03T21:14:11.927Z,8.28
2018-08-03T21:16:41.220Z,8.20
2018-08-03T21:19:10.542Z,11.25
2018-08-03T21:21:39.642Z,10.18
2018-08-03T21:24:08.936Z,8.25
2018-08-03T21:26:38.206Z,8.95
2018-08-03T21:29:07.353Z,8.48
2018-08-03T21:31:36.557Z,9.43
2018-08-03T21:34:05.759Z,12.20
2018-08-03T21:36:34.853Z,8.33
2018-08-03T21:39:04.653Z,9.13
2018-08-03T21:41:33.736Z,10.08
2018-08-03T21:44:02.909Z,9.35
2018-08-03T21:46:31.993Z,8.10
2018-08-03T21:49:01.134Z,9.53
2018-08-03T21:51:30.400Z,9.23
2018-08-03T21:53:59.880Z,10.23
2018-08-03T21:56:29.168Z,8.88
2018-08-03T21:58:58.354Z,8.45
2018-08-03T22:01:27.423Z,9.53
2018-08-03T22:03:56.549Z,9.35
2018-08-03T22:06:25.811Z,11.18
2018-08-03T22:08:54.948Z,9.28
2018-08-03T22:11:24.197Z,8.63
2018-08-03T22:13:53.381Z,10.05
2018-08-03T22:16:22.573Z,9.18
2018-08-03T22:18:51.845Z,11.73
2018-08-03T22:21:20.904Z,9.68
2018-08-03T22:23:50.029Z,8.43
2018-08-03T22:26:19.137Z,9.28
2018-08-03T22:28:48.581Z,9.05
2018-08-03T22:31:17.646Z,10.58
2018-08-03T22:33:46.918Z,10.10
2018-08-03T22:36:15.532Z,9.93
2018-08-03T22:38:44.730Z,10.32
2018-08-03T22:41:13.896Z,8.85
2018-08-03T22:43:43.011Z,9.08
2018-08-03T22:46:12.128Z,8.38
2018-08-03T22:48:41.286Z,8.85
2018-08-03T22:51:10.457Z,9.30
2018-08-03T22:53:39.587Z,9.55
2018-08-03T22:56:08.889Z,9.30
2018-08-03T22:58:38.277Z,8.93
2018-08-03T23:01:07.552Z,10.08
2018-08-03T23:03:36.873Z,10.32
2018-08-03T23:06:06.329Z,12.73
2018-08-03T23:08:35.612Z,8.48
2018-08-03T23:11:04.685Z,9.70
2018-08-03T23:13:33.825Z,8.83
2018-08-03T23:16:02.932Z,12.18
2018-08-03T23:18:32.205Z,10.65
2018-08-03T23:21:01.432Z,9.28
2018-08-03T23:23:30.580Z,8.23
2018-08-03T23:25:59.660Z,9.05
2018-08-03T23:28:29.710Z,9.10
2018-08-03T23:30:58.843Z,11.63
2018-08-03T23:33:27.938Z,8.60
2018-08-03T23:35:57.825Z,10.43
2018-08-03T23:38:27.023Z,11.78
2018-08-03T23:40:56.152Z,9.33
2018-08-03T23:43:25.439Z,8.98
2018-08-03T23:45:54.757Z,9.23
2018-08-03T23:48:23.873Z,7.73
2018-08-03T23:50:53.133Z,8.40
2018-08-03T23:53:22.355Z,9.48
2018-08-03T23:55:51.464Z,9.85
2018-08-03T23:58:20.581Z,10.03
